Time;durP1;ratioP1;P1;durP2;ratioP2;P2;SDS_P1;SDS_P2;PMS_P1;PMS_P2;Temp;Humidity;BMP_temperature;BMP_pressure;BME280_temperature;BME280_humidity;BME280_pressure;Samples;Min_cycle;Max_cycle;Signal;HPM_P1;HPM_P2
2022/12/10 00:01:55;;;;;;;27.13;16.30;;;3.50;56.20;;;;;;5022607;28;20499;-55
2022/12/10 00:04:22;;;;;;;25.63;15.95;;;3.50;56.10;;;;;;5024687;28;20061;-53
2022/12/10 00:06:50;;;;;;;28.13;16.15;;;3.50;56.20;;;;;;5023518;28;20516;-52
2022/12/10 00:09:19;;;;;;;32.05;17.35;;;3.50;56.20;;;;;;5022089;28;20053;-53
2022/12/10 00:11:46;;;;;;;26.88;16.33;;;3.50;56.20;;;;;;5019814;28;20053;-54
2022/12/10 00:14:14;;;;;;;26.58;15.55;;;3.50;56.20;;;;;;5023046;28;20382;-55
2022/12/10 00:16:42;;;;;;;28.48;16.38;;;3.50;56.20;;;;;;5024104;28;20052;-51
2022/12/10 00:19:11;;;;;;;33.42;18.98;;;3.50;56.20;;;;;;5023722;28;20057;-53
2022/12/10 00:21:39;;;;;;;28.77;17.10;;;3.50;56.10;;;;;;5018789;28;20516;-54
2022/12/10 00:24:06;;;;;;;26.65;16.23;;;3.50;56.00;;;;;;5023302;28;20107;-54
2022/12/10 00:26:36;;;;;;;28.00;16.10;;;3.40;56.40;;;;;;5022657;28;20053;-50
2022/12/10 00:29:06;;;;;;;27.20;16.40;;;3.40;56.00;;;;;;5020056;28;20065;-55
2022/12/10 00:31:36;;;;;;;28.08;16.63;;;3.40;56.10;;;;;;5022236;28;20058;-55
2022/12/10 00:34:05;;;;;;;29.27;16.65;;;3.40;56.10;;;;;;5023286;28;20053;-52
2022/12/10 00:36:36;;;;;;;27.17;16.02;;;3.40;56.10;;;;;;5022000;28;20061;-50
2022/12/10 00:39:04;;;;;;;29.48;16.83;;;3.40;56.00;;;;;;5018511;28;20064;-51
2022/12/10 00:41:32;;;;;;;27.95;16.65;;;3.40;55.90;;;;;;5022018;28;20053;-48
2022/12/10 00:43:59;;;;;;;23.90;14.82;;;3.30;55.70;;;;;;5022125;28;20049;-53
2022/12/10 00:46:27;;;;;;;29.75;17.60;;;3.30;55.70;;;;;;5023331;28;20046;-52
2022/12/10 00:48:54;;;;;;;32.03;18.17;;;3.30;55.80;;;;;;5019456;28;20077;-54
2022/12/10 00:51:23;;;;;;;36.13;18.95;;;3.30;55.80;;;;;;5018679;28;20049;-54
2022/12/10 00:53:53;;;;;;;27.85;16.73;;;3.20;55.80;;;;;;5022095;28;20068;-50
2022/12/10 00:56:22;;;;;;;32.05;17.63;;;3.20;55.80;;;;;;5022773;28;20053;-54
2022/12/10 00:58:50;;;;;;;27.65;16.08;;;3.20;55.80;;;;;;5020727;28;20068;-54
2022/12/10 01:01:20;;;;;;;29.27;17.38;;;3.20;55.80;;;;;;5019748;28;20409;-50
2022/12/10 01:03:48;;;;;;;29.73;17.27;;;3.10;55.80;;;;;;5022895;28;20060;-52
2022/12/10 01:06:17;;;;;;;36.22;19.02;;;3.10;55.90;;;;;;5021410;28;20498;-53
2022/12/10 01:08:46;;;;;;;29.75;17.20;;;3.10;55.90;;;;;;5020797;28;20065;-51
2022/12/10 01:11:16;;;;;;;28.42;16.35;;;3.10;56.10;;;;;;5016095;28;20064;-53
2022/12/10 01:13:44;;;;;;;30.30;17.25;;;3.00;56.20;;;;;;5021615;28;20485;-55
2022/12/10 01:16:14;;;;;;;29.45;17.40;;;3.10;56.40;;;;;;5020568;28;20057;-54
2022/12/10 01:18:42;;;;;;;26.35;15.88;;;3.10;56.40;;;;;;5022530;28;20519;-53
2022/12/10 01:21:12;;;;;;;27.30;15.45;;;3.10;56.60;;;;;;5018137;28;20060;-53
2022/12/10 01:23:41;;;;;;;27.45;15.98;;;3.10;56.60;;;;;;5021165;28;20057;-52
2022/12/10 01:26:10;;;;;;;22.95;14.38;;;3.10;56.60;;;;;;5019602;28;20501;-52
2022/12/10 01:28:40;;;;;;;28.58;15.93;;;3.10;56.60;;;;;;5020775;28;20481;-52
2022/12/10 01:31:11;;;;;;;26.60;15.65;;;3.20;56.60;;;;;;5018526;28;20065;-50
2022/12/10 01:33:39;;;;;;;28.40;16.85;;;3.20;56.60;;;;;;5017114;28;20053;-54
2022/12/10 01:36:08;;;;;;;25.23;15.35;;;3.20;56.40;;;;;;5018415;28;20057;-54
2022/12/10 01:38:36;;;;;;;29.63;15.70;;;3.20;56.20;;;;;;5019463;28;20053;-50
2022/12/10 01:41:03;;;;;;;31.27;18.38;;;3.20;56.10;;;;;;5018594;28;20058;-54
2022/12/10 01:43:51;;;;;;;26.77;16.25;;;3.20;56.10;;;;;;5019167;28;20076;-50
2022/12/10 01:46:19;;;;;;;30.92;17.60;;;3.20;56.10;;;;;;5020555;28;20052;-52
2022/12/10 01:48:47;;;;;;;28.27;17.17;;;3.20;56.10;;;;;;5020140;28;20071;-48
2022/12/10 01:51:15;;;;;;;28.65;16.17;;;3.20;56.20;;;;;;5012100;28;20072;-50
2022/12/10 01:53:44;;;;;;;30.88;16.75;;;3.20;56.30;;;;;;5021012;28;20057;-55
2022/12/10 01:56:11;;;;;;;32.20;17.42;;;3.20;56.40;;;;;;5019683;28;20057;-53
2022/12/10 01:58:39;;;;;;;28.20;16.25;;;3.20;56.40;;;;;;5021450;28;20045;-46
2022/12/10 02:01:12;;;;;;;30.02;17.95;;;3.20;56.40;;;;;;5020971;28;20485;-53
2022/12/10 02:03:51;;;;;;;27.40;16.13;;;3.20;56.30;;;;;;5023402;28;20068;-52
2022/12/10 02:06:32;;;;;;;30.08;17.52;;;3.20;56.30;;;;;;5020809;28;20053;-52
2022/12/10 02:09:09;;;;;;;25.50;14.80;;;3.20;56.40;;;;;;5018179;28;20045;-53
2022/12/10 02:11:42;;;;;;;32.63;17.45;;;3.20;56.40;;;;;;5016880;28;21147;-55
2022/12/10 02:14:16;;;;;;;29.15;17.20;;;3.20;56.50;;;;;;5022102;28;20057;-54
2022/12/10 02:16:52;;;;;;;25.15;15.30;;;3.20;56.30;;;;;;5022440;28;20045;-53
2022/12/10 02:19:26;;;;;;;24.45;14.13;;;3.20;56.10;;;;;;5016990;28;20065;-49
2022/12/10 02:21:56;;;;;;;29.13;17.00;;;3.20;56.20;;;;;;5019175;28;20393;-54
2022/12/10 02:24:28;;;;;;;32.70;17.77;;;3.20;56.30;;;;;;5020863;28;20527;-52
2022/12/10 02:27:03;;;;;;;30.25;16.92;;;3.20;56.20;;;;;;5022106;28;20083;-54
2022/12/10 02:29:32;;;;;;;30.25;16.92;;;3.20;56.20;;;;;;5019607;28;20054;-54
2022/12/10 02:32:04;;;;;;;32.75;18.90;;;3.10;56.20;;;;;;5020710;28;20053;-49
2022/12/10 02:34:35;;;;;;;31.23;17.40;;;3.10;56.30;;;;;;5021642;28;20061;-54
2022/12/10 02:37:07;;;;;;;27.10;16.02;;;3.10;56.20;;;;;;5018462;28;20544;-53
2022/12/10 02:39:40;;;;;;;27.73;14.20;;;3.00;56.30;;;;;;5019479;28;20057;-52
2022/12/10 02:42:09;;;;;;;30.35;16.65;;;3.00;56.40;;;;;;5020316;28;20068;-55
2022/12/10 02:44:40;;;;;;;27.42;15.20;;;3.00;56.50;;;;;;5022897;28;20470;-53
2022/12/10 02:47:08;;;;;;;26.40;15.18;;;3.00;56.50;;;;;;5019983;28;20064;-54
2022/12/10 02:49:37;;;;;;;25.15;15.15;;;3.00;56.60;;;;;;5018290;28;20060;-55
2022/12/10 02:52:09;;;;;;;26.52;15.57;;;3.00;56.60;;;;;;5022490;28;20049;-54
2022/12/10 02:54:41;;;;;;;29.52;17.48;;;3.00;56.60;;;;;;5023888;28;20428;-55
2022/12/10 02:57:33;;;;;;;28.08;16.98;;;3.00;56.60;;;;;;5024409;28;20060;-51
2022/12/10 03:00:12;;;;;;;33.13;18.48;;;3.10;56.50;;;;;;5025330;28;20057;-54
2022/12/10 03:02:51;;;;;;;27.35;15.95;;;3.00;56.40;;;;;;5026081;28;20064;-52
2022/12/10 03:05:23;;;;;;;29.05;16.10;;;3.10;56.40;;;;;;5022654;28;20536;-52
2022/12/10 03:07:57;;;;;;;32.60;18.15;;;3.10;56.40;;;;;;5020813;28;20517;-52
2022/12/10 03:10:30;;;;;;;29.90;17.30;;;3.00;56.40;;;;;;5024509;28;20083;-54
2022/12/10 03:13:00;;;;;;;28.30;16.38;;;3.00;56.30;;;;;;5023850;28;20068;-55
2022/12/10 03:15:33;;;;;;;28.13;15.52;;;3.00;56.40;;;;;;5024326;28;20053;-52
2022/12/10 03:18:03;;;;;;;29.27;17.57;;;3.00;56.50;;;;;;5020916;28;20060;-54
2022/12/10 03:20:35;;;;;;;24.23;14.70;;;2.90;56.60;;;;;;5019210;28;20062;-52
2022/12/10 03:23:03;;;;;;;25.92;15.63;;;3.00;56.70;;;;;;5025221;28;20080;-48
2022/12/10 03:25:32;;;;;;;34.67;18.10;;;3.00;56.80;;;;;;5024222;28;20076;-53
2022/12/10 03:28:01;;;;;;;34.38;17.45;;;3.00;56.90;;;;;;5024101;28;20397;-53
2022/12/10 03:30:32;;;;;;;29.75;17.80;;;3.00;56.90;;;;;;5020613;28;20061;-53
2022/12/10 03:33:00;;;;;;;24.67;15.23;;;3.00;56.90;;;;;;5023601;28;20390;-52
2022/12/10 03:35:28;;;;;;;26.27;14.82;;;3.00;56.90;;;;;;5021395;28;20045;-53
2022/12/10 03:37:56;;;;;;;28.60;16.73;;;3.00;57.00;;;;;;5022479;28;20057;-53
2022/12/10 03:40:25;;;;;;;29.33;17.13;;;3.10;57.10;;;;;;5021632;28;20054;-53
2022/12/10 03:42:52;;;;;;;28.90;16.25;;;3.10;57.00;;;;;;5024446;28;20063;-53
2022/12/10 03:45:20;;;;;;;26.60;15.88;;;3.10;56.90;;;;;;5024955;28;20057;-52
2022/12/10 03:47:49;;;;;;;25.50;15.65;;;3.10;56.80;;;;;;5023936;28;20481;-46
2022/12/10 03:50:17;;;;;;;28.55;15.48;;;3.10;56.80;;;;;;5021338;28;20513;-43
2022/12/10 03:52:44;;;;;;;29.05;18.23;;;3.10;56.90;;;;;;5022262;28;20068;-43
2022/12/10 03:55:11;;;;;;;28.83;17.00;;;3.10;57.00;;;;;;5022723;28;20053;-43
2022/12/10 03:57:39;;;;;;;26.75;15.98;;;3.10;56.80;;;;;;5023524;28;20057;-42
2022/12/10 04:00:08;;;;;;;28.48;15.50;;;3.10;56.70;;;;;;5021522;28;20053;-43
2022/12/10 04:02:35;;;;;;;34.90;19.15;;;3.00;56.70;;;;;;5022505;28;20381;-42
2022/12/10 04:05:06;;;;;;;28.92;15.95;;;3.00;56.60;;;;;;5023771;28;20061;-44
2022/12/10 04:07:33;;;;;;;28.67;16.40;;;3.00;56.40;;;;;;5024014;28;20060;-41
2022/12/10 04:10:00;;;;;;;24.40;15.18;;;3.00;56.50;;;;;;5020455;28;21039;-42
2022/12/10 04:12:28;;;;;;;32.58;19.27;;;2.90;56.60;;;;;;5022500;28;20057;-41
2022/12/10 04:17:40;;;;;;;30.48;17.42;;;2.90;56.60;;;;;;5029887;28;20060;-42
2022/12/10 04:26:51;;;;;;;28.38;17.27;;;2.90;56.60;;;;;;5021385;28;20064;-46
2022/12/10 04:28:27;;;;;;;28.92;16.77;;;2.90;56.70;;;;;;5025546;28;20132;-44
2022/12/10 04:30:54;;;;;;;32.47;18.27;;;2.90;56.70;;;;;;5015278;28;20599;-48
2022/12/10 04:33:22;;;;;;;28.55;16.52;;;2.90;56.70;;;;;;5018757;28;20049;-47
2022/12/10 04:35:50;;;;;;;31.65;18.38;;;2.90;56.60;;;;;;5021805;28;20064;-43
2022/12/10 04:38:17;;;;;;;26.05;15.88;;;2.90;56.70;;;;;;5024576;28;20057;-44
2022/12/10 04:40:45;;;;;;;25.08;15.48;;;2.90;56.70;;;;;;5020136;28;20057;-44
2022/12/10 04:43:12;;;;;;;26.92;15.93;;;2.90;56.80;;;;;;5021891;28;20421;-45
2022/12/10 04:45:39;;;;;;;27.92;15.80;;;2.90;56.90;;;;;;5018995;28;20060;-43
2022/12/10 04:48:06;;;;;;;24.48;15.38;;;2.90;57.00;;;;;;5021234;28;20062;-43
2022/12/10 04:50:34;;;;;;;25.67;15.02;;;2.90;57.00;;;;;;5017531;28;20060;-41
2022/12/10 04:53:03;;;;;;;32.33;16.85;;;3.00;57.10;;;;;;5023400;28;20057;-49
2022/12/10 04:55:30;;;;;;;25.40;14.88;;;3.00;57.00;;;;;;5022418;28;20117;-43
2022/12/10 04:57:58;;;;;;;26.63;14.80;;;3.00;56.90;;;;;;5024187;28;20049;-42
2022/12/10 05:00:25;;;;;;;29.70;16.50;;;3.00;57.00;;;;;;5023521;28;20060;-42
2022/12/10 05:02:52;;;;;;;27.48;16.48;;;3.10;57.00;;;;;;5024487;28;20064;-43
2022/12/10 05:05:20;;;;;;;27.85;15.30;;;3.10;56.80;;;;;;5020193;28;20056;-43
2022/12/10 05:07:47;;;;;;;27.88;16.67;;;3.10;56.80;;;;;;5021349;28;20064;-45
2022/12/10 05:10:16;;;;;;;24.80;15.60;;;3.10;56.70;;;;;;5020200;28;20045;-47
2022/12/10 05:12:43;;;;;;;31.88;18.50;;;3.10;56.60;;;;;;5022471;28;20069;-40
2022/12/10 05:15:11;;;;;;;29.30;16.55;;;3.10;56.70;;;;;;5021572;28;20060;-42
2022/12/10 05:17:38;;;;;;;25.65;15.52;;;3.10;56.70;;;;;;5017821;28;20060;-42
2022/12/10 05:20:06;;;;;;;27.20;15.52;;;3.20;56.80;;;;;;5025716;28;20049;-44
2022/12/10 05:25:20;;;;;;;29.58;15.85;;;3.20;56.80;;;;;;5049163;28;20534;-45
2022/12/10 05:27:47;;;;;;;35.85;18.02;;;3.20;56.70;;;;;;5043168;28;20060;-45
2022/12/10 05:30:15;;;;;;;33.60;16.70;;;3.20;56.60;;;;;;5040869;28;20049;-43
2022/12/10 05:32:42;;;;;;;32.15;17.10;;;3.20;56.50;;;;;;5043282;28;20402;-43
2022/12/10 05:35:09;;;;;;;25.98;15.30;;;3.20;56.60;;;;;;5040439;28;20135;-44
2022/12/10 05:37:36;;;;;;;28.00;14.65;;;3.20;56.70;;;;;;5038565;28;20518;-41
2022/12/10 05:40:05;;;;;;;29.55;16.42;;;3.20;57.30;;;;;;5041525;28;20056;-47
2022/12/10 05:42:33;;;;;;;30.20;16.60;;;3.10;56.80;;;;;;5042377;28;20123;-43
2022/12/10 05:45:01;;;;;;;29.55;16.98;;;3.10;56.80;;;;;;5042123;28;20492;-42
2022/12/10 05:47:28;;;;;;;25.90;15.95;;;3.10;56.70;;;;;;5039227;28;20099;-43
2022/12/10 05:49:55;;;;;;;30.02;17.40;;;3.20;56.80;;;;;;5039594;28;20053;-43
2022/12/10 05:52:22;;;;;;;29.60;16.30;;;3.10;56.70;;;;;;5040928;28;20057;-46
2022/12/10 05:54:50;;;;;;;31.92;17.30;;;3.10;56.80;;;;;;5042160;28;20064;-45
2022/12/10 05:57:17;;;;;;;37.72;19.70;;;3.20;56.80;;;;;;5041606;28;20079;-46
2022/12/10 05:59:45;;;;;;;39.40;21.25;;;3.10;56.70;;;;;;5038788;28;20045;-46
2022/12/10 06:02:12;;;;;;;36.08;19.35;;;3.10;56.40;;;;;;5040092;28;20048;-42
2022/12/10 06:04:40;;;;;;;37.33;20.05;;;3.00;56.30;;;;;;5042375;28;21390;-43
2022/12/10 06:07:07;;;;;;;34.25;19.25;;;2.90;56.50;;;;;;5038965;28;20052;-41
2022/12/10 06:09:34;;;;;;;33.97;19.80;;;2.90;56.40;;;;;;5041173;28;20052;-47
2022/12/10 06:12:01;;;;;;;31.58;18.60;;;2.80;56.50;;;;;;5041363;28;20067;-43
2022/12/10 06:14:29;;;;;;;36.85;19.38;;;2.70;56.60;;;;;;5042351;28;20063;-41
2022/12/10 06:16:57;;;;;;;34.13;19.50;;;2.70;56.80;;;;;;5040761;28;20515;-43
2022/12/10 06:19:24;;;;;;;36.42;20.00;;;2.60;57.00;;;;;;5038080;28;20055;-43
2022/12/10 06:21:51;;;;;;;38.15;20.30;;;2.60;57.10;;;;;;5037195;28;20075;-47
2022/12/10 06:24:19;;;;;;;36.22;21.17;;;2.60;57.20;;;;;;5039620;28;20060;-49
2022/12/10 06:26:46;;;;;;;35.38;18.83;;;2.60;57.30;;;;;;5045696;28;20075;-45
2022/12/10 06:29:13;;;;;;;40.05;20.13;;;2.50;57.30;;;;;;5043615;28;20041;-47
2022/12/10 06:31:40;;;;;;;32.65;18.33;;;2.50;57.30;;;;;;5042208;28;20057;-43
2022/12/10 06:34:09;;;;;;;32.42;18.45;;;2.40;57.30;;;;;;5046161;28;20420;-41
2022/12/10 06:36:37;;;;;;;34.47;19.23;;;2.50;57.50;;;;;;5044037;28;20984;-42
2022/12/10 06:39:04;;;;;;;34.17;18.85;;;2.50;57.60;;;;;;5043536;28;20052;-44
2022/12/10 06:41:32;;;;;;;32.95;17.45;;;2.50;57.70;;;;;;5044081;28;20053;-46
2022/12/10 06:43:59;;;;;;;33.40;19.55;;;2.40;57.60;;;;;;5040511;28;20060;-43
2022/12/10 06:46:28;;;;;;;33.28;17.70;;;2.40;57.70;;;;;;5040235;28;20048;-42
2022/12/10 06:48:55;;;;;;;32.97;19.50;;;2.40;57.80;;;;;;5045122;28;20507;-42
2022/12/10 06:51:24;;;;;;;29.73;16.80;;;2.50;57.80;;;;;;5040849;28;20067;-41
2022/12/10 06:53:51;;;;;;;32.10;18.33;;;2.50;57.90;;;;;;5043660;28;20516;-46
2022/12/10 06:56:20;;;;;;;34.83;19.88;;;2.50;57.90;;;;;;5043299;28;20068;-46
2022/12/10 06:58:48;;;;;;;36.55;21.17;;;2.60;58.00;;;;;;5044274;28;20064;-43
2022/12/10 07:01:19;;;;;;;36.15;20.73;;;2.60;57.90;;;;;;5040636;28;20056;-45
2022/12/10 07:03:49;;;;;;;34.85;19.58;;;2.60;57.80;;;;;;5040121;28;20056;-44
2022/12/10 07:06:16;;;;;;;36.58;19.70;;;2.60;57.80;;;;;;5039224;28;20057;-45
2022/12/10 07:08:45;;;;;;;35.63;19.90;;;2.60;57.80;;;;;;5044647;28;21299;-42
2022/12/10 07:11:14;;;;;;;33.65;18.63;;;2.60;57.80;;;;;;5041271;28;20061;-43
2022/12/10 07:13:42;;;;;;;33.47;19.48;;;2.60;57.80;;;;;;5033104;28;20064;-43
2022/12/10 07:16:14;;;;;;;34.05;19.08;;;2.60;57.80;;;;;;5031682;28;20508;-47
2022/12/10 07:18:41;;;;;;;40.35;21.30;;;2.60;57.70;;;;;;5038271;28;20381;-45
2022/12/10 07:21:16;;;;;;;36.83;20.92;;;2.60;57.70;;;;;;5037415;28;20523;-43
2022/12/10 07:23:44;;;;;;;35.28;19.65;;;2.60;57.70;;;;;;5040370;28;20063;-42
2022/12/10 07:26:12;;;;;;;33.13;19.08;;;2.60;57.70;;;;;;5040200;28;20049;-42
2022/12/10 07:28:39;;;;;;;32.35;18.70;;;2.60;57.90;;;;;;5042017;28;21306;-41
2022/12/10 07:31:09;;;;;;;31.90;19.15;;;2.60;57.90;;;;;;5035101;28;21429;-43
2022/12/10 07:33:38;;;;;;;37.28;20.70;;;2.50;57.90;;;;;;5039839;28;20111;-41
2022/12/10 07:36:07;;;;;;;35.30;19.80;;;2.50;58.00;;;;;;5040027;28;20056;-41
2022/12/10 07:38:35;;;;;;;30.30;16.95;;;2.50;58.00;;;;;;5044151;28;20052;-45
2022/12/10 07:41:06;;;;;;;32.75;18.30;;;2.50;58.00;;;;;;5038577;28;20484;-45
2022/12/10 07:43:35;;;;;;;34.70;19.58;;;2.60;58.20;;;;;;5043101;28;20049;-43
2022/12/10 07:46:06;;;;;;;36.95;19.35;;;2.50;58.20;;;;;;5045228;28;20080;-42
2022/12/10 07:48:35;;;;;;;36.83;19.85;;;2.60;58.20;;;;;;5040867;28;20041;-48
2022/12/10 07:51:02;;;;;;;33.85;19.33;;;2.60;58.20;;;;;;5034978;28;20056;-44
2022/12/10 07:53:30;;;;;;;35.40;19.60;;;2.60;58.20;;;;;;5043523;28;20056;-45
2022/12/10 07:55:58;;;;;;;30.83;17.70;;;2.60;58.10;;;;;;5040741;28;20056;-43
2022/12/10 07:58:26;;;;;;;34.65;18.42;;;2.70;58.10;;;;;;5040533;28;20057;-44
2022/12/10 08:00:54;;;;;;;33.33;18.42;;;2.70;58.20;;;;;;5040561;28;20056;-46
2022/12/10 08:03:21;;;;;;;32.25;19.23;;;2.70;58.10;;;;;;5039078;28;20056;-46
2022/12/10 08:05:48;;;;;;;30.27;18.23;;;2.70;58.10;;;;;;5041817;28;20052;-44
2022/12/10 08:08:15;;;;;;;34.63;18.88;;;2.80;58.10;;;;;;5038557;28;20512;-43
2022/12/10 08:10:42;;;;;;;33.65;19.17;;;2.80;58.00;;;;;;5035741;28;20056;-42
2022/12/10 08:13:10;;;;;;;33.55;19.48;;;2.80;57.90;;;;;;5041320;28;20588;-42
2022/12/10 08:15:38;;;;;;;32.63;18.52;;;2.90;57.90;;;;;;5041979;28;20060;-43
2022/12/10 08:18:08;;;;;;;33.03;18.48;;;2.90;57.90;;;;;;5041059;28;20057;-44
2022/12/10 08:20:36;;;;;;;37.88;20.52;;;2.90;57.90;;;;;;5040942;28;20632;-45
2022/12/10 08:23:03;;;;;;;29.55;17.88;;;2.90;57.80;;;;;;5041968;28;20053;-43
2022/12/10 08:25:30;;;;;;;32.53;19.15;;;3.00;57.90;;;;;;5042156;28;20504;-48
2022/12/10 08:27:59;;;;;;;37.85;20.35;;;3.00;57.90;;;;;;5041073;28;20057;-43
2022/12/10 08:30:27;;;;;;;35.70;19.70;;;3.00;57.80;;;;;;5042308;28;20374;-46
2022/12/10 08:32:55;;;;;;;31.65;17.75;;;3.00;57.70;;;;;;5040755;28;20052;-46
2022/12/10 08:35:22;;;;;;;29.48;17.38;;;3.10;57.80;;;;;;5043638;28;20060;-43
2022/12/10 08:37:50;;;;;;;37.70;20.17;;;3.10;57.90;;;;;;5039275;28;20056;-43
2022/12/10 08:40:17;;;;;;;35.25;19.05;;;3.10;57.90;;;;;;5040661;28;20361;-50
2022/12/10 08:42:45;;;;;;;30.15;17.92;;;3.10;57.80;;;;;;5041198;28;20420;-48
2022/12/10 08:45:12;;;;;;;33.95;18.52;;;3.20;57.90;;;;;;5043613;28;20061;-45
2022/12/10 08:47:39;;;;;;;34.60;20.23;;;3.20;57.90;;;;;;5042913;28;20488;-44
2022/12/10 08:50:08;;;;;;;31.35;18.33;;;3.20;57.90;;;;;;5038046;28;20049;-45
2022/12/10 08:52:36;;;;;;;32.40;19.70;;;3.30;57.80;;;;;;5039287;28;20060;-44
2022/12/10 08:55:04;;;;;;;34.83;19.60;;;3.30;57.80;;;;;;5039584;28;20055;-44
2022/12/10 08:57:31;;;;;;;33.03;19.70;;;3.30;57.70;;;;;;5041437;28;20049;-45
2022/12/10 08:59:58;;;;;;;40.25;22.30;;;3.30;57.70;;;;;;5042659;28;20049;-43
2022/12/10 09:02:25;;;;;;;40.22;21.60;;;3.40;57.70;;;;;;5038505;28;20053;-42
2022/12/10 09:04:53;;;;;;;39.20;21.73;;;3.40;57.60;;;;;;5040600;28;20380;-45
2022/12/10 09:07:22;;;;;;;41.67;23.80;;;3.40;57.50;;;;;;5041811;28;20053;-44
2022/12/10 09:09:49;;;;;;;36.03;20.30;;;3.40;57.30;;;;;;5041728;28;20484;-44
2022/12/10 09:12:16;;;;;;;45.35;23.23;;;3.50;57.20;;;;;;5041551;28;20060;-44
2022/12/10 09:14:43;;;;;;;39.65;21.08;;;3.50;57.20;;;;;;5038614;28;20412;-47
2022/12/10 09:17:10;;;;;;;43.72;24.08;;;3.50;57.10;;;;;;5038522;28;20057;-43
2022/12/10 09:19:38;;;;;;;41.22;23.33;;;3.50;57.10;;;;;;5043255;28;20473;-44
2022/12/10 09:22:05;;;;;;;45.83;23.17;;;3.50;57.10;;;;;;5040031;28;20049;-47
2022/12/10 09:24:33;;;;;;;46.05;22.75;;;3.50;57.00;;;;;;5037463;28;20520;-48
2022/12/10 09:27:01;;;;;;;40.22;21.23;;;3.50;57.50;;;;;;5037213;28;20041;-46
2022/12/10 09:29:29;;;;;;;46.13;24.98;;;3.60;57.00;;;;;;5037561;28;20093;-46
2022/12/10 09:31:56;;;;;;;42.15;23.55;;;3.50;56.90;;;;;;5039339;28;20422;-45
2022/12/10 09:34:23;;;;;;;53.55;27.98;;;3.60;56.80;;;;;;5040678;28;20052;-43
2022/12/10 09:36:50;;;;;;;38.38;21.00;;;3.60;56.80;;;;;;5039707;28;20049;-42
2022/12/10 09:39:17;;;;;;;38.22;19.73;;;3.60;56.90;;;;;;5038872;28;20049;-47
2022/12/10 09:42:02;;;;;;;37.00;17.67;;;3.50;56.90;;;;;;5038321;28;20053;-44
2022/12/10 09:44:53;;;;;;;35.65;18.60;;;3.60;56.60;;;;;;5043674;28;20061;-42
2022/12/10 09:47:25;;;;;;;42.50;20.70;;;3.60;56.30;;;;;;5042305;28;20064;-44
2022/12/10 09:50:03;;;;;;;36.03;19.73;;;3.60;56.30;;;;;;5038139;28;20060;-45
2022/12/10 09:52:36;;;;;;;36.03;19.92;;;3.50;56.10;;;;;;5040742;28;20056;-43
2022/12/10 09:55:09;;;;;;;34.53;19.55;;;3.50;56.10;;;;;;5040274;28;20049;-43
2022/12/10 09:57:41;;;;;;;35.65;19.35;;;3.50;55.90;;;;;;5041960;28;20057;-46
2022/12/10 10:00:20;;;;;;;36.00;19.77;;;3.40;55.90;;;;;;5040321;28;20062;-47
2022/12/10 10:02:47;;;;;;;32.55;18.55;;;3.40;55.90;;;;;;5042190;28;20057;-48
2022/12/10 10:05:23;;;;;;;32.85;17.73;;;3.40;55.90;;;;;;5038054;28;20053;-42
2022/12/10 10:07:52;;;;;;;33.58;18.30;;;3.40;56.10;;;;;;5041797;28;20065;-44
2022/12/10 10:10:26;;;;;;;33.10;18.30;;;3.40;56.10;;;;;;5038792;28;20053;-46
2022/12/10 10:12:58;;;;;;;32.53;16.85;;;3.40;56.10;;;;;;5038360;28;20049;-42
2022/12/10 10:15:30;;;;;;;29.50;15.68;;;3.40;56.10;;;;;;5040135;28;20060;-43
2022/12/10 10:18:03;;;;;;;35.10;18.67;;;3.50;56.10;;;;;;5039744;28;20045;-44
2022/12/10 10:20:31;;;;;;;35.17;18.08;;;3.50;56.10;;;;;;5035552;28;20049;-42
2022/12/10 10:22:59;;;;;;;35.83;18.70;;;3.50;56.00;;;;;;5039027;28;20056;-44
2022/12/10 10:25:28;;;;;;;39.38;19.05;;;3.50;56.00;;;;;;5038453;28;20067;-45
2022/12/10 10:27:57;;;;;;;44.40;23.17;;;3.50;55.90;;;;;;5041738;28;20048;-45
2022/12/10 10:30:24;;;;;;;41.38;20.33;;;3.60;55.80;;;;;;5041112;28;20057;-45
2022/12/10 10:32:54;;;;;;;34.67;17.73;;;3.50;55.60;;;;;;5042163;28;20408;-45
2022/12/10 10:35:28;;;;;;;37.90;19.95;;;3.50;55.60;;;;;;5033483;28;20080;-44
2022/12/10 10:38:06;;;;;;;34.35;17.95;;;3.40;55.30;;;;;;5037792;28;20053;-43
2022/12/10 10:40:41;;;;;;;36.35;18.85;;;3.40;55.40;;;;;;5037735;28;20061;-46
2022/12/10 10:43:17;;;;;;;35.72;18.80;;;3.40;55.60;;;;;;5039361;28;20045;-44
2022/12/10 10:45:50;;;;;;;36.63;19.27;;;3.40;55.80;;;;;;5035578;28;20056;-46
2022/12/10 10:48:19;;;;;;;36.13;18.45;;;3.40;56.00;;;;;;5041901;28;20060;-46
2022/12/10 10:50:48;;;;;;;39.42;19.75;;;3.40;56.10;;;;;;5039573;28;20505;-48
2022/12/10 10:53:31;;;;;;;36.20;19.63;;;3.50;56.10;;;;;;5038411;28;20049;-43
2022/12/10 10:56:05;;;;;;;37.45;19.05;;;3.50;56.00;;;;;;5042918;28;20053;-45
2022/12/10 10:58:35;;;;;;;38.53;19.88;;;3.50;55.70;;;;;;5040892;28;20129;-43
2022/12/10 11:01:05;;;;;;;36.97;20.52;;;3.40;55.70;;;;;;5041159;28;20485;-48
2022/12/10 11:03:35;;;;;;;34.92;18.13;;;3.40;55.90;;;;;;5041300;28;20056;-43
2022/12/10 11:06:05;;;;;;;40.97;19.20;;;3.40;56.00;;;;;;5039668;28;20527;-43
2022/12/10 11:08:33;;;;;;;32.28;18.77;;;3.40;56.00;;;;;;5040909;28;20488;-42
2022/12/10 11:11:05;;;;;;;38.47;20.42;;;3.50;56.10;;;;;;5041102;28;20416;-42
2022/12/10 11:13:35;;;;;;;33.22;19.13;;;3.50;56.10;;;;;;5041363;28;20053;-45
2022/12/10 11:16:11;;;;;;;37.55;20.98;;;3.50;56.10;;;;;;5040640;28;20064;-43
2022/12/10 11:18:41;;;;;;;41.00;21.73;;;3.60;56.10;;;;;;5043931;28;20055;-48
2022/12/10 11:21:18;;;;;;;40.40;20.85;;;3.60;56.00;;;;;;5037545;28;20056;-43
2022/12/10 11:23:47;;;;;;;36.15;19.38;;;3.60;55.90;;;;;;5036090;28;20045;-46
2022/12/10 11:26:50;;;;;;;37.33;19.00;;;3.70;55.90;;;;;;5041715;28;20048;-44
2022/12/10 11:29:32;;;;;;;42.10;20.20;;;3.70;55.80;;;;;;4999631;28;20608;-46
2022/12/10 11:32:17;;;;;;;45.45;21.77;;;3.80;55.40;;;;;;5035847;28;20064;-43
2022/12/10 11:34:55;;;;;;;41.55;21.52;;;3.70;55.10;;;;;;5040465;28;20057;-45
2022/12/10 11:37:30;;;;;;;40.95;22.10;;;3.70;54.90;;;;;;5039313;28;20060;-45
2022/12/10 11:40:23;;;;;;;43.63;22.35;;;3.70;54.80;;;;;;5041073;28;20492;-42
2022/12/10 11:43:02;;;;;;;39.97;21.55;;;3.60;55.00;;;;;;5041643;28;20052;-43
2022/12/10 11:45:54;;;;;;;42.83;22.95;;;3.60;55.20;;;;;;5043117;28;20044;-45
2022/12/10 11:48:35;;;;;;;47.17;22.83;;;3.50;55.40;;;;;;5039203;28;20056;-44
2022/12/10 11:51:06;;;;;;;41.22;21.92;;;3.50;55.40;;;;;;5040246;28;20052;-42
2022/12/10 11:53:51;;;;;;;36.78;20.38;;;3.50;55.50;;;;;;5037592;28;20053;-42
2022/12/10 11:56:25;;;;;;;43.50;22.38;;;3.40;55.50;;;;;;5037907;28;20053;-48
2022/12/10 11:59:05;;;;;;;42.63;20.52;;;3.40;55.60;;;;;;5040189;28;20492;-45
2022/12/10 12:01:47;;;;;;;36.63;19.50;;;3.40;55.70;;;;;;5036469;28;20041;-49
2022/12/10 12:04:34;;;;;;;38.65;19.02;;;3.40;55.60;;;;;;5039007;28;20416;-44
2022/12/10 12:07:34;;;;;;;45.97;23.17;;;3.50;55.70;;;;;;5039753;28;20049;-42
2022/12/10 12:10:20;;;;;;;42.90;23.08;;;3.40;55.40;;;;;;4998577;28;20057;-42
2022/12/10 12:12:56;;;;;;;49.55;25.35;;;3.40;55.40;;;;;;5041016;28;20607;-46
2022/12/10 12:15:29;;;;;;;40.72;22.45;;;3.40;55.50;;;;;;5040824;28;20064;-46
2022/12/10 12:18:02;;;;;;;43.63;22.10;;;3.40;55.70;;;;;;5041160;28;20513;-45
2022/12/10 12:20:34;;;;;;;;;;;3.40;55.70;;;;;;5039579;28;20052;-44
2022/12/10 12:23:07;;;;;;;35.50;19.70;;;3.40;55.70;;;;;;5038371;28;19927;-45
2022/12/10 12:25:40;;;;;;;41.92;21.67;;;3.50;55.70;;;;;;5038089;28;20052;-46
2022/12/10 12:28:15;;;;;;;35.92;19.50;;;3.50;55.70;;;;;;5043316;28;20068;-43
2022/12/10 12:30:45;;;;;;;39.55;20.95;;;3.50;55.80;;;;;;5037808;28;20515;-43
2022/12/10 12:33:21;;;;;;;40.05;20.98;;;3.60;55.70;;;;;;5037066;28;20396;-45
2022/12/10 12:35:52;;;;;;;43.97;22.55;;;3.60;55.70;;;;;;5040587;28;20060;-44
2022/12/10 12:38:28;;;;;;;49.40;21.98;;;3.60;55.50;;;;;;5042232;28;20061;-46
2022/12/10 12:41:03;;;;;;;38.42;21.17;;;3.60;55.30;;;;;;5041090;28;20064;-45
2022/12/10 12:43:41;;;;;;;43.20;21.50;;;3.60;55.30;;;;;;5043182;28;20504;-43
2022/12/10 12:46:14;;;;;;;37.35;21.13;;;3.70;55.20;;;;;;5037261;28;20436;-45
2022/12/10 12:48:52;;;;;;;42.80;22.40;;;3.60;55.10;;;;;;5039307;28;20056;-45
2022/12/10 12:51:24;;;;;;;45.38;20.67;;;3.60;54.80;;;;;;5036595;28;20053;-45
2022/12/10 12:53:51;;;;;;;44.38;23.00;;;3.50;54.80;;;;;;5042846;28;20515;-42
2022/12/10 12:56:26;;;;;;;39.10;21.33;;;3.40;54.80;;;;;;5039401;28;20052;-49
2022/12/10 12:59:02;;;;;;;36.72;19.60;;;3.40;55.10;;;;;;5040258;28;20068;-42
2022/12/10 13:01:35;;;;;;;37.50;19.20;;;3.40;55.20;;;;;;5039675;28;20057;-45
2022/12/10 13:04:06;;;;;;;35.35;19.70;;;3.40;55.30;;;;;;5042989;28;20063;-44
2022/12/10 13:06:35;;;;;;;37.25;19.75;;;3.40;55.30;;;;;;5040039;28;20497;-48